首页
METAR-TAF:

METAR-TAF

机场 :

蘇加諾-哈達國際機場

雅加达, 爪哇島, 印度尼西亚

纬度: 06-07S, 经度: 106-39E, 海拔: 8米

当前天气观测

该预报发布于24分钟前的23:00 UTC
风速2节,风向多变
温度 25°C
湿度 94%
气压 1009 hPa
能見度: 6000
少量云层高于1800英尺, 积雨云.
散云层高于2000英尺

METAR: WIII 152300Z VRB02KT 6000 FEW018CB SCT020 25/24 Q1009 RERA NOSIG RMK CB TO NW

时间: 06:24 (23:24 UTC)

预报

该预报发布于2小时和34分钟前的20:50 UTC
预报有效从15日的 20点(UTC)到 17日的 00点(UTC)
风速2节,风向多变
能見度: 4000
散云层高于2000英尺
短暂存在
从 15日的 20点(UTC)到 16日的 00点(UTC)
能見度: 3000
少量云层高于1800英尺, 积雨云.
雷暴, 雨
成为
从 16日的 01点(UTC)到 16日的 03点(UTC)
风速10节,风向北转东北
能見度: 9000
短暂存在
从 16日的 06点(UTC)到 16日的 10点(UTC)
能見度: 4000
少量云层高于1800英尺, 积雨云.
雷暴, 雨,

TAF: WIII 152050Z 1520/1700 VRB02KT 4000 HZ SCT020 TEMPO 1520/1600 3000 TSRA FEW018CB BECMG 1601/1603 02010KT 9000 NSW TEMPO 1606/1610 4000 TSRA FEW018CB

超过4000个机场的气象观测和天气预报(METAR&TAF报告)。

可查询的气象台以黄色和红色小点在地图上表示。

将鼠标移到小点上方,可查看气象台名称。

然后点击查看天气观测和预报。

如需切换地图:点击带黑十字的绿色按钮放大地图;点击带横线的绿色按钮缩小地图;或者点击绿色箭头查看邻近地区的地图。


METAR-TAF: